sensor_id;sensor_type;location;lat;lon;timestamp;pressure;altitude;pressure_sealevel;temperature;humidity
44659;BME280;30378;50.186;8.644;2022-08-21T00:00:44;100313.16;;;16.27;100.00
44659;BME280;30378;50.186;8.644;2022-08-21T00:03:12;100309.16;;;16.16;100.00
44659;BME280;30378;50.186;8.644;2022-08-21T00:05:44;100307.09;;;16.04;100.00
44659;BME280;30378;50.186;8.644;2022-08-21T00:08:11;100308.00;;;15.87;100.00
44659;BME280;30378;50.186;8.644;2022-08-21T00:10:40;100300.06;;;15.68;100.00
44659;BME280;30378;50.186;8.644;2022-08-21T00:13:08;100299.13;;;15.55;100.00
44659;BME280;30378;50.186;8.644;2022-08-21T00:15:36;100299.94;;;15.47;100.00
44659;BME280;30378;50.186;8.644;2022-08-21T00:18:06;100292.31;;;15.35;100.00
44659;BME280;30378;50.186;8.644;2022-08-21T00:20:34;100295.28;;;15.21;100.00
44659;BME280;30378;50.186;8.644;2022-08-21T00:23:02;100284.72;;;15.06;100.00
44659;BME280;30378;50.186;8.644;2022-08-21T00:25:31;100290.09;;;14.94;100.00
44659;BME280;30378;50.186;8.644;2022-08-21T00:27:58;100281.97;;;14.80;100.00
44659;BME280;30378;50.186;8.644;2022-08-21T00:30:26;100282.63;;;14.68;100.00
44659;BME280;30378;50.186;8.644;2022-08-21T00:32:55;100277.41;;;14.66;100.00
44659;BME280;30378;50.186;8.644;2022-08-21T00:35:30;100281.94;;;14.54;100.00
44659;BME280;30378;50.186;8.644;2022-08-21T00:37:58;100274.59;;;14.40;100.00
44659;BME280;30378;50.186;8.644;2022-08-21T00:40:31;100280.13;;;14.40;100.00
44659;BME280;30378;50.186;8.644;2022-08-21T00:42:59;100286.66;;;14.36;100.00
44659;BME280;30378;50.186;8.644;2022-08-21T00:45:27;100288.25;;;14.28;100.00
44659;BME280;30378;50.186;8.644;2022-08-21T00:47:54;100288.06;;;14.24;100.00
44659;BME280;30378;50.186;8.644;2022-08-21T00:50:23;100285.44;;;14.19;100.00
44659;BME280;30378;50.186;8.644;2022-08-21T00:52:52;100285.94;;;14.13;100.00
44659;BME280;30378;50.186;8.644;2022-08-21T00:55:20;100287.19;;;13.98;100.00
44659;BME280;30378;50.186;8.644;2022-08-21T00:57:52;100287.66;;;13.91;100.00
44659;BME280;30378;50.186;8.644;2022-08-21T01:00:24;100288.94;;;13.85;100.00
44659;BME280;30378;50.186;8.644;2022-08-21T01:02:52;100289.25;;;13.83;100.00
44659;BME280;30378;50.186;8.644;2022-08-21T01:05:19;100276.41;;;13.87;100.00
44659;BME280;30378;50.186;8.644;2022-08-21T01:07:46;100283.25;;;13.90;100.00
44659;BME280;30378;50.186;8.644;2022-08-21T01:10:15;100272.19;;;13.90;100.00
44659;BME280;30378;50.186;8.644;2022-08-21T01:12:43;100277.88;;;13.85;100.00
44659;BME280;30378;50.186;8.644;2022-08-21T01:15:12;100278.50;;;13.82;100.00
44659;BME280;30378;50.186;8.644;2022-08-21T01:17:42;100280.28;;;13.78;100.00
44659;BME280;30378;50.186;8.644;2022-08-21T01:20:11;100277.84;;;13.76;100.00
44659;BME280;30378;50.186;8.644;2022-08-21T01:22:38;100278.00;;;13.71;100.00
44659;BME280;30378;50.186;8.644;2022-08-21T01:25:07;100283.69;;;13.75;100.00
44659;BME280;30378;50.186;8.644;2022-08-21T01:27:36;100291.72;;;13.94;100.00
44659;BME280;30378;50.186;8.644;2022-08-21T01:30:14;100283.91;;;13.87;100.00
44659;BME280;30378;50.186;8.644;2022-08-21T01:32:43;100287.28;;;13.75;100.00
44659;BME280;30378;50.186;8.644;2022-08-21T01:35:11;100286.22;;;13.62;100.00
44659;BME280;30378;50.186;8.644;2022-08-21T01:37:39;100294.47;;;13.54;100.00
44659;BME280;30378;50.186;8.644;2022-08-21T01:40:08;100287.28;;;13.44;100.00
44659;BME280;30378;50.186;8.644;2022-08-21T01:42:36;100296.13;;;13.55;100.00
44659;BME280;30378;50.186;8.644;2022-08-21T01:45:05;100294.47;;;13.54;100.00
44659;BME280;30378;50.186;8.644;2022-08-21T01:47:33;100289.06;;;13.48;100.00
44659;BME280;30378;50.186;8.644;2022-08-21T01:50:00;100289.44;;;13.56;100.00
44659;BME280;30378;50.186;8.644;2022-08-21T01:52:28;100294.47;;;13.85;100.00
44659;BME280;30378;50.186;8.644;2022-08-21T01:54:56;100296.94;;;13.95;100.00
44659;BME280;30378;50.186;8.644;2022-08-21T01:57:23;100285.84;;;13.86;100.00
44659;BME280;30378;50.186;8.644;2022-08-21T01:59:51;100278.97;;;13.66;100.00
44659;BME280;30378;50.186;8.644;2022-08-21T02:02:18;100283.75;;;13.52;100.00
44659;BME280;30378;50.186;8.644;2022-08-21T02:04:45;100279.78;;;13.36;100.00
44659;BME280;30378;50.186;8.644;2022-08-21T02:07:12;100282.88;;;13.20;100.00
44659;BME280;30378;50.186;8.644;2022-08-21T02:09:39;100289.94;;;13.04;100.00
44659;BME280;30378;50.186;8.644;2022-08-21T02:12:10;100286.28;;;12.95;100.00
44659;BME280;30378;50.186;8.644;2022-08-21T02:14:38;100283.78;;;12.84;100.00
44659;BME280;30378;50.186;8.644;2022-08-21T02:17:06;100289.78;;;12.86;100.00
44659;BME280;30378;50.186;8.644;2022-08-21T02:19:33;100281.88;;;12.71;100.00
44659;BME280;30378;50.186;8.644;2022-08-21T02:22:00;100287.03;;;12.64;100.00
44659;BME280;30378;50.186;8.644;2022-08-21T02:24:27;100278.34;;;12.57;100.00
44659;BME280;30378;50.186;8.644;2022-08-21T02:26:54;100276.44;;;12.43;100.00
44659;BME280;30378;50.186;8.644;2022-08-21T02:29:21;100278.50;;;12.38;100.00
44659;BME280;30378;50.186;8.644;2022-08-21T02:31:49;100285.34;;;12.40;100.00
44659;BME280;30378;50.186;8.644;2022-08-21T02:34:16;100287.94;;;12.23;100.00
44659;BME280;30378;50.186;8.644;2022-08-21T02:36:43;100288.53;;;12.20;100.00
44659;BME280;30378;50.186;8.644;2022-08-21T02:39:10;100286.28;;;12.22;100.00
44659;BME280;30378;50.186;8.644;2022-08-21T02:41:37;100281.50;;;12.14;100.00
44659;BME280;30378;50.186;8.644;2022-08-21T02:44:04;100278.16;;;12.03;100.00
44659;BME280;30378;50.186;8.644;2022-08-21T02:46:31;100283.34;;;12.04;100.00
44659;BME280;30378;50.186;8.644;2022-08-21T02:48:59;100277.81;;;12.04;100.00
44659;BME280;30378;50.186;8.644;2022-08-21T02:51:26;100278.66;;;11.91;100.00
44659;BME280;30378;50.186;8.644;2022-08-21T02:53:53;100281.72;;;11.89;100.00
44659;BME280;30378;50.186;8.644;2022-08-21T02:56:20;100285.69;;;11.97;100.00
44659;BME280;30378;50.186;8.644;2022-08-21T02:58:51;100287.00;;;12.00;100.00
44659;BME280;30378;50.186;8.644;2022-08-21T03:01:19;100287.94;;;11.95;100.00
44659;BME280;30378;50.186;8.644;2022-08-21T03:03:47;100282.53;;;11.90;100.00
44659;BME280;30378;50.186;8.644;2022-08-21T03:06:18;100283.66;;;11.89;100.00
44659;BME280;30378;50.186;8.644;2022-08-21T03:08:46;100282.63;;;11.85;100.00
44659;BME280;30378;50.186;8.644;2022-08-21T03:11:14;100277.13;;;11.85;100.00
44659;BME280;30378;50.186;8.644;2022-08-21T03:13:42;100281.91;;;11.79;100.00
44659;BME280;30378;50.186;8.644;2022-08-21T03:16:09;100285.56;;;11.75;100.00
44659;BME280;30378;50.186;8.644;2022-08-21T03:18:36;100274.88;;;11.73;100.00
44659;BME280;30378;50.186;8.644;2022-08-21T03:21:04;100286.78;;;11.68;100.00
44659;BME280;30378;50.186;8.644;2022-08-21T03:23:32;100283.50;;;11.66;100.00
44659;BME280;30378;50.186;8.644;2022-08-21T03:25:59;100296.25;;;11.62;100.00
44659;BME280;30378;50.186;8.644;2022-08-21T03:28:26;100294.22;;;11.54;100.00
44659;BME280;30378;50.186;8.644;2022-08-21T03:30:54;100289.09;;;11.47;100.00
44659;BME280;30378;50.186;8.644;2022-08-21T03:33:21;100284.72;;;11.46;100.00
44659;BME280;30378;50.186;8.644;2022-08-21T03:35:58;100287.88;;;11.54;100.00
44659;BME280;30378;50.186;8.644;2022-08-21T03:38:28;100292.25;;;11.55;100.00
44659;BME280;30378;50.186;8.644;2022-08-21T03:40:56;100303.16;;;11.46;100.00
44659;BME280;30378;50.186;8.644;2022-08-21T03:43:23;100311.50;;;11.41;100.00
44659;BME280;30378;50.186;8.644;2022-08-21T03:45:50;100316.19;;;11.40;100.00
44659;BME280;30378;50.186;8.644;2022-08-21T03:48:19;100305.41;;;11.44;100.00
44659;BME280;30378;50.186;8.644;2022-08-21T03:50:46;100303.34;;;11.36;100.00
44659;BME280;30378;50.186;8.644;2022-08-21T03:53:16;100309.00;;;11.25;100.00
44659;BME280;30378;50.186;8.644;2022-08-21T03:55:48;100306.13;;;11.17;100.00
44659;BME280;30378;50.186;8.644;2022-08-21T03:58:18;100306.34;;;11.20;100.00
44659;BME280;30378;50.186;8.644;2022-08-21T04:00:47;100319.09;;;11.16;100.00
44659;BME280;30378;50.186;8.644;2022-08-21T04:03:16;100325.69;;;11.15;100.00
44659;BME280;30378;50.186;8.644;2022-08-21T04:05:43;100331.72;;;11.50;100.00
44659;BME280;30378;50.186;8.644;2022-08-21T04:08:13;100352.56;;;11.84;100.00
44659;BME280;30378;50.186;8.644;2022-08-21T04:10:42;100361.34;;;11.86;100.00
44659;BME280;30378;50.186;8.644;2022-08-21T04:13:10;100348.75;;;11.66;100.00
44659;BME280;30378;50.186;8.644;2022-08-21T04:15:38;100344.44;;;11.46;100.00
44659;BME280;30378;50.186;8.644;2022-08-21T04:18:05;100347.97;;;11.32;100.00
44659;BME280;30378;50.186;8.644;2022-08-21T04:20:33;100349.84;;;11.18;100.00
44659;BME280;30378;50.186;8.644;2022-08-21T04:23:02;100347.69;;;11.15;100.00
44659;BME280;30378;50.186;8.644;2022-08-21T04:25:29;100348.38;;;11.07;100.00
44659;BME280;30378;50.186;8.644;2022-08-21T04:27:56;100352.25;;;11.06;100.00
44659;BME280;30378;50.186;8.644;2022-08-21T04:30:25;100358.63;;;11.01;100.00
44659;BME280;30378;50.186;8.644;2022-08-21T04:32:52;100353.22;;;10.96;100.00
44659;BME280;30378;50.186;8.644;2022-08-21T04:35:22;100357.97;;;10.90;100.00
44659;BME280;30378;50.186;8.644;2022-08-21T04:37:50;100365.72;;;10.88;100.00
44659;BME280;30378;50.186;8.644;2022-08-21T04:40:19;100367.16;;;11.00;100.00
44659;BME280;30378;50.186;8.644;2022-08-21T04:42:49;100370.44;;;11.02;100.00
44659;BME280;30378;50.186;8.644;2022-08-21T04:45:26;100372.72;;;11.14;100.00
44659;BME280;30378;50.186;8.644;2022-08-21T04:47:59;100371.09;;;11.31;100.00
44659;BME280;30378;50.186;8.644;2022-08-21T04:51:13;100374.25;;;11.39;100.00
44659;BME280;30378;50.186;8.644;2022-08-21T04:53:45;100382.84;;;11.51;100.00
44659;BME280;30378;50.186;8.644;2022-08-21T04:56:34;100370.38;;;11.73;100.00
44659;BME280;30378;50.186;8.644;2022-08-21T04:59:07;100368.91;;;11.94;100.00
44659;BME280;30378;50.186;8.644;2022-08-21T05:01:39;100368.41;;;12.20;100.00
44659;BME280;30378;50.186;8.644;2022-08-21T05:04:08;100371.28;;;12.42;100.00
44659;BME280;30378;50.186;8.644;2022-08-21T05:06:38;100375.66;;;12.57;100.00
44659;BME280;30378;50.186;8.644;2022-08-21T05:09:09;100375.53;;;12.76;100.00
44659;BME280;30378;50.186;8.644;2022-08-21T05:11:36;100377.59;;;12.93;100.00
44659;BME280;30378;50.186;8.644;2022-08-21T05:14:04;100374.63;;;13.03;100.00
44659;BME280;30378;50.186;8.644;2022-08-21T05:16:31;100381.72;;;13.18;100.00
44659;BME280;30378;50.186;8.644;2022-08-21T05:18:58;100379.13;;;13.36;100.00
44659;BME280;30378;50.186;8.644;2022-08-21T05:21:25;100384.53;;;13.72;100.00
44659;BME280;30378;50.186;8.644;2022-08-21T05:23:52;100380.47;;;13.92;100.00
44659;BME280;30378;50.186;8.644;2022-08-21T05:26:20;100379.47;;;14.28;100.00
44659;BME280;30378;50.186;8.644;2022-08-21T05:28:47;100355.22;;;16.38;100.00
44659;BME280;30378;50.186;8.644;2022-08-21T05:31:14;100353.03;;;17.82;100.00
44659;BME280;30378;50.186;8.644;2022-08-21T05:33:41;100352.31;;;19.08;100.00
44659;BME280;30378;50.186;8.644;2022-08-21T05:36:08;100344.88;;;20.32;100.00
44659;BME280;30378;50.186;8.644;2022-08-21T05:38:36;100352.38;;;21.18;100.00
44659;BME280;30378;50.186;8.644;2022-08-21T05:41:03;100365.16;;;22.01;100.00
44659;BME280;30378;50.186;8.644;2022-08-21T05:43:30;100366.28;;;23.30;89.62
44659;BME280;30378;50.186;8.644;2022-08-21T05:45:59;100375.31;;;23.12;86.06
44659;BME280;30378;50.186;8.644;2022-08-21T05:48:27;100377.31;;;24.80;71.15
44659;BME280;30378;50.186;8.644;2022-08-21T05:50:54;100377.19;;;24.58;71.19
44659;BME280;30378;50.186;8.644;2022-08-21T05:53:22;100369.59;;;25.36;65.44
44659;BME280;30378;50.186;8.644;2022-08-21T05:55:50;100384.19;;;24.89;62.84
44659;BME280;30378;50.186;8.644;2022-08-21T05:58:19;100377.69;;;24.23;74.62
44659;BME280;30378;50.186;8.644;2022-08-21T06:00:48;100382.66;;;24.44;65.89
44659;BME280;30378;50.186;8.644;2022-08-21T06:03:20;100380.78;;;25.25;61.02
44659;BME280;30378;50.186;8.644;2022-08-21T06:05:47;100380.00;;;25.28;61.47
44659;BME280;30378;50.186;8.644;2022-08-21T06:08:16;100383.44;;;26.66;55.37
44659;BME280;30378;50.186;8.644;2022-08-21T06:10:45;100382.00;;;25.27;63.45
44659;BME280;30378;50.186;8.644;2022-08-21T06:13:14;100385.03;;;26.24;55.37
44659;BME280;30378;50.186;8.644;2022-08-21T06:15:42;100384.66;;;26.69;56.96
44659;BME280;30378;50.186;8.644;2022-08-21T06:18:10;100387.09;;;26.35;54.45
44659;BME280;30378;50.186;8.644;2022-08-21T06:20:37;100379.81;;;25.98;54.28
44659;BME280;30378;50.186;8.644;2022-08-21T06:23:05;100379.41;;;26.28;60.24
44659;BME280;30378;50.186;8.644;2022-08-21T06:25:32;100385.34;;;27.13;55.65
44659;BME280;30378;50.186;8.644;2022-08-21T06:28:04;100381.78;;;26.90;54.77
44659;BME280;30378;50.186;8.644;2022-08-21T06:30:32;100378.97;;;26.87;54.42
44659;BME280;30378;50.186;8.644;2022-08-21T06:33:00;100389.88;;;26.49;57.37
44659;BME280;30378;50.186;8.644;2022-08-21T06:35:28;100390.63;;;24.90;58.81
44659;BME280;30378;50.186;8.644;2022-08-21T06:37:57;100388.13;;;24.74;63.37
44659;BME280;30378;50.186;8.644;2022-08-21T06:40:26;100380.25;;;22.96;71.83
44659;BME280;30378;50.186;8.644;2022-08-21T06:42:53;100378.38;;;23.71;78.40
44659;BME280;30378;50.186;8.644;2022-08-21T06:45:21;100381.22;;;22.81;76.42
44659;BME280;30378;50.186;8.644;2022-08-21T06:47:49;100373.47;;;21.97;83.98
44659;BME280;30378;50.186;8.644;2022-08-21T06:50:16;100374.75;;;21.57;92.62
44659;BME280;30378;50.186;8.644;2022-08-21T06:52:43;100374.03;;;21.61;93.42
44659;BME280;30378;50.186;8.644;2022-08-21T06:55:10;100376.97;;;22.37;91.75
44659;BME280;30378;50.186;8.644;2022-08-21T06:57:37;100387.53;;;23.01;92.93
44659;BME280;30378;50.186;8.644;2022-08-21T07:00:06;100379.50;;;23.63;81.44
44659;BME280;30378;50.186;8.644;2022-08-21T07:02:34;100366.84;;;24.21;81.67
44659;BME280;30378;50.186;8.644;2022-08-21T07:05:01;100369.75;;;24.87;66.08
44659;BME280;30378;50.186;8.644;2022-08-21T07:07:29;100373.78;;;26.75;56.68
44659;BME280;30378;50.186;8.644;2022-08-21T07:09:56;100373.78;;;26.10;58.51
44659;BME280;30378;50.186;8.644;2022-08-21T07:12:23;100374.34;;;28.10;50.44
44659;BME280;30378;50.186;8.644;2022-08-21T07:14:50;100374.50;;;28.41;50.18
44659;BME280;30378;50.186;8.644;2022-08-21T07:17:19;100378.00;;;28.07;48.50
44659;BME280;30378;50.186;8.644;2022-08-21T07:19:46;100376.19;;;28.76;46.46
44659;BME280;30378;50.186;8.644;2022-08-21T07:22:15;100367.75;;;30.50;44.84
44659;BME280;30378;50.186;8.644;2022-08-21T07:24:43;100368.16;;;30.49;45.82
44659;BME280;30378;50.186;8.644;2022-08-21T07:27:11;100368.28;;;31.29;44.10
44659;BME280;30378;50.186;8.644;2022-08-21T07:29:38;100368.56;;;30.71;43.68
44659;BME280;30378;50.186;8.644;2022-08-21T07:32:06;100368.13;;;31.72;42.62
44659;BME280;30378;50.186;8.644;2022-08-21T07:34:33;100370.94;;;32.09;39.90
44659;BME280;30378;50.186;8.644;2022-08-21T07:37:00;100369.78;;;32.22;39.96
44659;BME280;30378;50.186;8.644;2022-08-21T07:39:27;100367.25;;;32.74;38.90
44659;BME280;30378;50.186;8.644;2022-08-21T07:41:54;100366.06;;;31.56;40.29
44659;BME280;30378;50.186;8.644;2022-08-21T07:44:21;100360.97;;;31.28;40.47
44659;BME280;30378;50.186;8.644;2022-08-21T07:46:48;100355.44;;;29.86;43.12
44659;BME280;30378;50.186;8.644;2022-08-21T07:49:16;100356.44;;;29.99;44.73
44659;BME280;30378;50.186;8.644;2022-08-21T07:51:43;100344.06;;;30.13;43.80
44659;BME280;30378;50.186;8.644;2022-08-21T07:54:10;100349.44;;;32.86;40.69
44659;BME280;30378;50.186;8.644;2022-08-21T07:56:37;100343.53;;;32.48;42.04
44659;BME280;30378;50.186;8.644;2022-08-21T07:59:04;100350.50;;;32.47;38.32
44659;BME280;30378;50.186;8.644;2022-08-21T08:01:31;100342.47;;;31.39;40.58
44659;BME280;30378;50.186;8.644;2022-08-21T08:03:59;100343.84;;;31.88;41.05
44659;BME280;30378;50.186;8.644;2022-08-21T08:06:26;100350.25;;;32.87;38.24
44659;BME280;30378;50.186;8.644;2022-08-21T08:08:53;100338.16;;;31.15;43.14
44659;BME280;30378;50.186;8.644;2022-08-21T08:11:20;100333.59;;;32.85;39.86
44659;BME280;30378;50.186;8.644;2022-08-21T08:13:50;100348.38;;;32.80;38.73
44659;BME280;30378;50.186;8.644;2022-08-21T08:16:18;100355.41;;;33.05;38.06
44659;BME280;30378;50.186;8.644;2022-08-21T08:18:46;100352.09;;;32.15;39.33
44659;BME280;30378;50.186;8.644;2022-08-21T08:21:13;100352.97;;;31.42;40.13
44659;BME280;30378;50.186;8.644;2022-08-21T08:23:40;100352.97;;;31.79;42.30
44659;BME280;30378;50.186;8.644;2022-08-21T08:26:08;100348.44;;;30.65;41.29
44659;BME280;30378;50.186;8.644;2022-08-21T08:28:35;100345.34;;;29.27;44.36
44659;BME280;30378;50.186;8.644;2022-08-21T08:31:02;100337.63;;;31.40;41.97
44659;BME280;30378;50.186;8.644;2022-08-21T08:33:30;100334.63;;;33.21;39.84
44659;BME280;30378;50.186;8.644;2022-08-21T08:35:57;100331.41;;;33.73;37.49
44659;BME280;30378;50.186;8.644;2022-08-21T08:38:26;100320.66;;;33.26;37.78
44659;BME280;30378;50.186;8.644;2022-08-21T08:43:50;100319.31;;;31.94;39.95
44659;BME280;30378;50.186;8.644;2022-08-21T08:46:24;100312.19;;;32.80;38.51
44659;BME280;30378;50.186;8.644;2022-08-21T08:51:29;100315.44;;;32.04;39.17
44659;BME280;30378;50.186;8.644;2022-08-21T08:54:05;100306.88;;;33.76;37.00
44659;BME280;30378;50.186;8.644;2022-08-21T08:56:35;100312.13;;;31.73;38.64
44659;BME280;30378;50.186;8.644;2022-08-21T08:59:08;100309.66;;;31.38;38.68
44659;BME280;30378;50.186;8.644;2022-08-21T09:01:37;100302.44;;;31.54;38.65
44659;BME280;30378;50.186;8.644;2022-08-21T09:04:05;100294.81;;;30.71;39.46
44659;BME280;30378;50.186;8.644;2022-08-21T09:10:04;100298.09;;;31.29;38.66
44659;BME280;30378;50.186;8.644;2022-08-21T09:12:50;100289.22;;;31.96;38.17
44659;BME280;30378;50.186;8.644;2022-08-21T09:21:05;100280.94;;;29.35;40.69
44659;BME280;30378;50.186;8.644;2022-08-21T09:26:36;100276.69;;;31.77;37.62
44659;BME280;30378;50.186;8.644;2022-08-21T09:29:11;100287.53;;;32.15;36.94
44659;BME280;30378;50.186;8.644;2022-08-21T09:31:39;100280.00;;;31.39;37.06
44659;BME280;30378;50.186;8.644;2022-08-21T09:34:10;100279.19;;;30.62;38.46
44659;BME280;30378;50.186;8.644;2022-08-21T09:36:40;100280.59;;;32.00;36.15
44659;BME280;30378;50.186;8.644;2022-08-21T09:39:09;100274.19;;;30.90;37.75
44659;BME280;30378;50.186;8.644;2022-08-21T09:41:38;100273.09;;;30.20;38.07
44659;BME280;30378;50.186;8.644;2022-08-21T09:44:08;100279.00;;;29.82;41.27
44659;BME280;30378;50.186;8.644;2022-08-21T09:46:35;100278.88;;;30.13;40.38
44659;BME280;30378;50.186;8.644;2022-08-21T09:49:04;100276.56;;;30.32;38.94
44659;BME280;30378;50.186;8.644;2022-08-21T09:51:35;100275.16;;;28.04;41.46
44659;BME280;30378;50.186;8.644;2022-08-21T09:56:56;100274.50;;;29.58;38.08
44659;BME280;30378;50.186;8.644;2022-08-21T09:59:43;100270.69;;;29.17;40.82
44659;BME280;30378;50.186;8.644;2022-08-21T10:02:23;100271.13;;;28.81;42.05
44659;BME280;30378;50.186;8.644;2022-08-21T10:04:56;100259.44;;;28.79;41.32
44659;BME280;30378;50.186;8.644;2022-08-21T10:07:26;100252.31;;;28.98;42.68
44659;BME280;30378;50.186;8.644;2022-08-21T10:10:15;100255.13;;;31.80;38.76
44659;BME280;30378;50.186;8.644;2022-08-21T10:13:04;100244.41;;;33.17;36.95
44659;BME280;30378;50.186;8.644;2022-08-21T10:16:05;100250.94;;;33.44;35.48
44659;BME280;30378;50.186;8.644;2022-08-21T10:18:48;100245.13;;;31.39;35.22
44659;BME280;30378;50.186;8.644;2022-08-21T10:21:30;100241.03;;;29.25;38.56
44659;BME280;30378;50.186;8.644;2022-08-21T10:24:44;100239.34;;;27.35;40.67
44659;BME280;30378;50.186;8.644;2022-08-21T10:29:42;100228.88;;;29.79;39.16
44659;BME280;30378;50.186;8.644;2022-08-21T10:37:38;100222.34;;;28.74;38.82
44659;BME280;30378;50.186;8.644;2022-08-21T10:43:06;100218.41;;;27.88;40.66
44659;BME280;30378;50.186;8.644;2022-08-21T10:51:04;100217.47;;;26.83;43.33
44659;BME280;30378;50.186;8.644;2022-08-21T10:56:33;100212.56;;;27.61;40.59
44659;BME280;30378;50.186;8.644;2022-08-21T11:01:50;100213.97;;;27.31;41.54
44659;BME280;30378;50.186;8.644;2022-08-21T11:06:58;100206.03;;;27.71;41.41
44659;BME280;30378;50.186;8.644;2022-08-21T11:09:27;100204.63;;;29.27;38.80
44659;BME280;30378;50.186;8.644;2022-08-21T11:12:05;100206.03;;;30.74;37.97
44659;BME280;30378;50.186;8.644;2022-08-21T11:18:02;100195.53;;;29.13;38.28
44659;BME280;30378;50.186;8.644;2022-08-21T11:20:56;100198.16;;;27.48;40.51
44659;BME280;30378;50.186;8.644;2022-08-21T11:23:43;100186.50;;;29.49;40.10
44659;BME280;30378;50.186;8.644;2022-08-21T11:26:18;100185.38;;;28.88;38.02
44659;BME280;30378;50.186;8.644;2022-08-21T11:28:55;100184.53;;;29.45;37.35
44659;BME280;30378;50.186;8.644;2022-08-21T11:31:38;100184.28;;;30.27;37.19
44659;BME280;30378;50.186;8.644;2022-08-21T11:40:48;100174.44;;;27.83;39.36
44659;BME280;30378;50.186;8.644;2022-08-21T11:43:49;100166.53;;;28.43;38.10
44659;BME280;30378;50.186;8.644;2022-08-21T11:46:49;100170.00;;;27.82;40.21
44659;BME280;30378;50.186;8.644;2022-08-21T11:49:33;100172.25;;;28.02;38.88
44659;BME280;30378;50.186;8.644;2022-08-21T11:57:39;100166.06;;;29.61;35.04
44659;BME280;30378;50.186;8.644;2022-08-21T12:02:54;100167.00;;;30.61;34.56
44659;BME280;30378;50.186;8.644;2022-08-21T12:05:32;100158.97;;;28.98;37.32
44659;BME280;30378;50.186;8.644;2022-08-21T12:08:56;100158.13;;;29.29;37.05
44659;BME280;30378;50.186;8.644;2022-08-21T12:19:09;100155.25;;;30.79;33.38
44659;BME280;30378;50.186;8.644;2022-08-21T12:21:57;100150.38;;;29.05;35.96
44659;BME280;30378;50.186;8.644;2022-08-21T12:24:47;100155.47;;;28.60;36.54
44659;BME280;30378;50.186;8.644;2022-08-21T12:27:30;100150.97;;;28.62;36.46
44659;BME280;30378;50.186;8.644;2022-08-21T12:33:00;100148.78;;;29.32;36.24
44659;BME280;30378;50.186;8.644;2022-08-21T12:35:40;100143.97;;;28.74;36.22
44659;BME280;30378;50.186;8.644;2022-08-21T12:38:26;100136.53;;;28.22;38.20
44659;BME280;30378;50.186;8.644;2022-08-21T12:41:05;100145.09;;;29.07;39.18
44659;BME280;30378;50.186;8.644;2022-08-21T12:46:00;100145.88;;;29.59;37.34
44659;BME280;30378;50.186;8.644;2022-08-21T12:48:41;100141.97;;;28.71;37.93
44659;BME280;30378;50.186;8.644;2022-08-21T12:51:21;100137.56;;;28.70;37.06
44659;BME280;30378;50.186;8.644;2022-08-21T12:53:57;100136.31;;;28.98;37.73
44659;BME280;30378;50.186;8.644;2022-08-21T12:56:29;100132.19;;;30.01;37.80
44659;BME280;30378;50.186;8.644;2022-08-21T12:59:00;100142.03;;;30.73;34.46
44659;BME280;30378;50.186;8.644;2022-08-21T13:01:33;100140.91;;;30.50;35.41
44659;BME280;30378;50.186;8.644;2022-08-21T13:04:15;100141.00;;;29.12;34.91
44659;BME280;30378;50.186;8.644;2022-08-21T13:06:47;100139.72;;;29.88;36.34
44659;BME280;30378;50.186;8.644;2022-08-21T13:09:18;100134.06;;;29.40;37.10
44659;BME280;30378;50.186;8.644;2022-08-21T13:11:48;100130.84;;;29.38;36.68
44659;BME280;30378;50.186;8.644;2022-08-21T13:14:30;100126.03;;;28.84;38.11
44659;BME280;30378;50.186;8.644;2022-08-21T13:16:59;100128.63;;;29.26;35.50
44659;BME280;30378;50.186;8.644;2022-08-21T13:19:30;100126.50;;;29.06;36.17
44659;BME280;30378;50.186;8.644;2022-08-21T13:21:59;100123.59;;;27.91;37.14
44659;BME280;30378;50.186;8.644;2022-08-21T13:24:33;100126.84;;;27.82;38.09
44659;BME280;30378;50.186;8.644;2022-08-21T13:27:24;100115.78;;;28.02;38.02
44659;BME280;30378;50.186;8.644;2022-08-21T13:30:11;100115.53;;;27.89;38.36
44659;BME280;30378;50.186;8.644;2022-08-21T13:32:45;100112.66;;;27.93;39.01
44659;BME280;30378;50.186;8.644;2022-08-21T13:35:17;100114.56;;;28.03;38.54
44659;BME280;30378;50.186;8.644;2022-08-21T13:37:47;100111.09;;;28.22;36.38
44659;BME280;30378;50.186;8.644;2022-08-21T13:40:19;100106.53;;;28.32;34.35
44659;BME280;30378;50.186;8.644;2022-08-21T13:42:47;100107.25;;;27.67;35.89
44659;BME280;30378;50.186;8.644;2022-08-21T13:45:25;100107.94;;;27.79;36.67
44659;BME280;30378;50.186;8.644;2022-08-21T13:47:53;100106.78;;;27.31;37.77
44659;BME280;30378;50.186;8.644;2022-08-21T13:50:23;100098.19;;;27.45;38.51
44659;BME280;30378;50.186;8.644;2022-08-21T13:53:23;100095.75;;;27.47;39.24
44659;BME280;30378;50.186;8.644;2022-08-21T13:55:51;100096.28;;;27.35;40.45
44659;BME280;30378;50.186;8.644;2022-08-21T13:58:42;100094.03;;;27.99;35.24
44659;BME280;30378;50.186;8.644;2022-08-21T14:01:20;100094.50;;;28.28;34.05
44659;BME280;30378;50.186;8.644;2022-08-21T14:03:50;100103.03;;;27.86;35.06
44659;BME280;30378;50.186;8.644;2022-08-21T14:06:25;100098.59;;;28.20;34.45
44659;BME280;30378;50.186;8.644;2022-08-21T14:09:02;100090.31;;;28.40;35.13
44659;BME280;30378;50.186;8.644;2022-08-21T14:11:36;100088.53;;;28.49;35.21
44659;BME280;30378;50.186;8.644;2022-08-21T14:14:22;100078.38;;;28.83;34.68
44659;BME280;30378;50.186;8.644;2022-08-21T14:16:59;100087.72;;;29.07;34.04
44659;BME280;30378;50.186;8.644;2022-08-21T14:19:39;100086.56;;;29.01;33.64
44659;BME280;30378;50.186;8.644;2022-08-21T14:25:10;100084.59;;;29.72;32.19